Aviation Digital Data Service (ADDS)

Output produced by TAFs form (0745 UTC 01 August 2014)
found at http://aviationweather.gov/adds/tafs/
 
KGUP 010526Z 0106/0206 18010KT P6SM BKN100 
     FM011900 27015G25KT P6SM VCTS BKN060CB 
     FM012200 30010KT P6SM VCSH OVC060 
     FM020200 21010KT P6SM SCT025 OVC040